createdAt,value
2019-03-20T00:01:01.161Z,9.73
2019-03-20T00:03:48.942Z,9.63
2019-03-20T00:06:36.705Z,10.10
2019-03-20T00:09:24.390Z,11.30
2019-03-20T00:12:12.045Z,9.00
2019-03-20T00:14:59.681Z,9.57
2019-03-20T00:17:47.539Z,10.50
2019-03-20T00:20:35.018Z,9.90
2019-03-20T00:23:22.757Z,9.47
2019-03-20T00:26:10.305Z,9.73
2019-03-20T00:28:57.772Z,9.73
2019-03-20T00:31:45.193Z,9.83
2019-03-20T00:34:32.616Z,10.03
2019-03-20T00:37:20.253Z,10.00
2019-03-20T00:40:13.493Z,10.13
2019-03-20T00:43:00.954Z,9.53
2019-03-20T00:45:48.697Z,10.27
2019-03-20T00:48:36.048Z,11.50
2019-03-20T00:51:23.605Z,9.57
2019-03-20T00:54:11.317Z,10.00
2019-03-20T00:56:58.734Z,9.30
2019-03-20T00:59:46.389Z,8.93
2019-03-20T01:02:34.209Z,8.93
2019-03-20T01:05:22.110Z,9.30
2019-03-20T01:08:09.729Z,9.70
2019-03-20T01:10:57.377Z,9.30
2019-03-20T01:13:44.809Z,9.27
2019-03-20T01:16:32.174Z,9.27
2019-03-20T01:19:19.851Z,8.87
2019-03-20T01:22:07.710Z,9.57
2019-03-20T01:24:55.118Z,10.40
2019-03-20T01:27:42.538Z,9.60
2019-03-20T01:30:42.053Z,9.47
2019-03-20T01:33:29.554Z,9.83
2019-03-20T01:36:16.985Z,9.67
2019-03-20T01:39:05.921Z,9.50
2019-03-20T01:41:53.590Z,9.80
2019-03-20T01:44:41.046Z,10.00
2019-03-20T01:47:28.473Z,9.87
2019-03-20T01:50:16.073Z,9.90
2019-03-20T01:53:03.582Z,8.73
2019-03-20T01:55:50.958Z,9.17
2019-03-20T01:58:38.465Z,9.17
2019-03-20T02:01:26.116Z,8.27
2019-03-20T02:04:13.845Z,9.10
2019-03-20T02:07:01.241Z,9.40
2019-03-20T02:09:48.636Z,8.50
2019-03-20T02:12:36.396Z,8.27
2019-03-20T02:15:24.122Z,7.13
2019-03-20T02:18:11.501Z,7.50
2019-03-20T02:20:59.915Z,7.50
2019-03-20T02:23:47.325Z,7.33
2019-03-20T02:26:34.977Z,8.07
2019-03-20T02:29:22.689Z,7.10
2019-03-20T02:32:10.516Z,7.47
2019-03-20T02:34:58.241Z,7.83
2019-03-20T02:37:45.942Z,7.43
2019-03-20T02:40:33.636Z,7.40
2019-03-20T02:43:21.219Z,7.00
2019-03-20T02:46:08.966Z,8.53
2019-03-20T02:48:56.382Z,9.50
2019-03-20T02:51:44.055Z,9.40
2019-03-20T02:54:31.569Z,9.57
2019-03-20T02:57:19.345Z,8.77
2019-03-20T03:00:10.167Z,9.27
2019-03-20T03:02:57.586Z,8.13
2019-03-20T03:05:45.182Z,8.60
2019-03-20T03:08:32.895Z,7.80
2019-03-20T03:11:20.418Z,9.20
2019-03-20T03:14:07.842Z,7.80
2019-03-20T03:16:55.586Z,8.10
2019-03-20T03:19:42.981Z,7.47
2019-03-20T03:22:30.607Z,6.87
2019-03-20T03:25:18.136Z,8.40
2019-03-20T03:28:05.553Z,7.43
2019-03-20T03:30:53.183Z,7.70
2019-03-20T03:33:40.904Z,7.90
2019-03-20T03:36:28.583Z,6.70
2019-03-20T03:39:16.265Z,7.30
2019-03-20T03:42:03.915Z,7.73
2019-03-20T03:44:51.242Z,7.33
2019-03-20T03:47:38.960Z,7.80
2019-03-20T03:50:26.374Z,8.07
2019-03-20T03:53:13.773Z,7.50
2019-03-20T03:56:01.547Z,8.93
2019-03-20T03:58:49.031Z,8.23
2019-03-20T04:01:36.434Z,7.43
2019-03-20T04:04:24.218Z,8.03
2019-03-20T04:07:11.714Z,8.20
2019-03-20T04:09:59.405Z,8.37
2019-03-20T04:12:47.172Z,8.43
2019-03-20T04:15:36.397Z,7.50
2019-03-20T04:18:24.555Z,9.43
2019-03-20T04:21:12.146Z,9.63
2019-03-20T04:23:59.551Z,8.63
2019-03-20T04:26:46.954Z,8.37
2019-03-20T04:29:34.803Z,7.70
2019-03-20T04:32:22.507Z,7.43
2019-03-20T04:35:10.847Z,8.10
2019-03-20T04:37:58.409Z,8.17
2019-03-20T04:40:45.888Z,8.43
2019-03-20T04:43:33.471Z,9.00
2019-03-20T04:46:21.022Z,8.83
2019-03-20T04:49:08.865Z,8.43
2019-03-20T04:51:56.248Z,9.13
2019-03-20T04:54:43.644Z,9.07
2019-03-20T04:57:31.380Z,9.53
2019-03-20T05:00:22.249Z,8.83
2019-03-20T05:03:10.010Z,8.20
2019-03-20T05:05:57.711Z,8.57
2019-03-20T05:08:45.497Z,8.10
2019-03-20T05:11:33.044Z,8.67
2019-03-20T05:14:20.614Z,7.53
2019-03-20T05:17:08.161Z,8.37
2019-03-20T05:19:55.605Z,9.70
2019-03-20T05:22:43.353Z,9.00
2019-03-20T05:25:31.024Z,10.07
2019-03-20T05:28:18.625Z,9.80
2019-03-20T05:31:06.330Z,10.13
2019-03-20T05:33:54.141Z,9.93
2019-03-20T05:36:41.814Z,9.50
2019-03-20T05:39:29.389Z,9.90
2019-03-20T05:42:16.884Z,10.20
2019-03-20T05:45:06.517Z,9.67
2019-03-20T05:47:54.189Z,9.43
2019-03-20T05:50:41.640Z,9.27
2019-03-20T05:53:29.348Z,9.30
2019-03-20T05:56:16.921Z,9.70
2019-03-20T05:59:04.658Z,8.70
2019-03-20T06:01:52.279Z,8.93
2019-03-20T06:04:39.761Z,8.77
2019-03-20T06:07:27.243Z,9.40
2019-03-20T06:10:18.415Z,9.67
2019-03-20T06:13:06.016Z,9.17
2019-03-20T06:15:53.505Z,9.37
2019-03-20T06:18:41.049Z,10.40
2019-03-20T06:21:28.667Z,8.87
2019-03-20T06:24:16.257Z,8.43
2019-03-20T06:27:03.994Z,9.43
2019-03-20T06:29:51.628Z,9.93
2019-03-20T06:32:39.049Z,8.27
2019-03-20T06:35:26.685Z,8.93
2019-03-20T06:38:14.261Z,7.97
2019-03-20T06:41:01.801Z,8.40
2019-03-20T06:43:49.204Z,8.40
2019-03-20T06:46:36.833Z,8.50
2019-03-20T06:49:24.493Z,8.40
2019-03-20T06:52:12.170Z,9.07
2019-03-20T06:55:01.151Z,9.07
2019-03-20T06:57:49.292Z,8.47
2019-03-20T07:00:40.305Z,9.77
2019-03-20T07:03:46.072Z,9.90
2019-03-20T07:06:48.706Z,9.47
2019-03-20T07:09:51.442Z,9.57
2019-03-20T07:12:38.855Z,10.03
2019-03-20T07:15:26.642Z,10.07
2019-03-20T07:18:14.141Z,9.50
2019-03-20T07:21:01.694Z,9.00
2019-03-20T07:23:49.424Z,10.47
2019-03-20T07:26:36.809Z,10.40
2019-03-20T07:29:24.484Z,10.30
2019-03-20T07:32:12.189Z,10.37
2019-03-20T07:34:59.692Z,9.80
2019-03-20T07:37:55.578Z,10.30
2019-03-20T07:40:36.621Z,9.80
2019-03-20T07:43:27.030Z,9.77
2019-03-20T07:46:14.997Z,9.93
2019-03-20T07:49:02.716Z,9.20
2019-03-20T07:51:50.400Z,10.13
2019-03-20T07:54:38.006Z,8.97
2019-03-20T07:57:25.652Z,9.90
2019-03-20T08:00:14.176Z,9.43
2019-03-20T08:03:01.836Z,8.27
2019-03-20T08:05:49.345Z,8.03
2019-03-20T08:08:36.851Z,9.53
2019-03-20T08:11:24.504Z,8.50
2019-03-20T08:14:11.901Z,8.87
2019-03-20T08:16:59.588Z,8.00
2019-03-20T08:19:47.050Z,8.53
2019-03-20T08:22:34.825Z,8.90
2019-03-20T08:25:22.508Z,8.73
2019-03-20T08:28:10.009Z,8.13
2019-03-20T08:30:57.666Z,8.50
2019-03-20T08:33:45.264Z,8.70
2019-03-20T08:36:32.723Z,8.63
2019-03-20T08:39:20.298Z,8.60
2019-03-20T08:42:07.704Z,9.47
2019-03-20T08:44:55.136Z,8.57
2019-03-20T08:47:43.014Z,8.70
2019-03-20T08:50:30.679Z,8.83
2019-03-20T08:53:18.346Z,9.13
2019-03-20T08:56:05.789Z,9.17
2019-03-20T08:58:53.590Z,9.37
2019-03-20T09:01:41.298Z,8.50
2019-03-20T09:04:28.958Z,9.23
2019-03-20T09:07:16.349Z,9.97
2019-03-20T09:10:06.732Z,10.93
2019-03-20T09:12:54.844Z,9.37
2019-03-20T09:15:42.496Z,9.33
2019-03-20T09:18:29.856Z,9.53
2019-03-20T09:21:17.518Z,9.83
2019-03-20T09:24:05.238Z,10.17
2019-03-20T09:26:52.622Z,10.53
2019-03-20T09:29:41.183Z,9.20
2019-03-20T09:32:29.117Z,10.37
2019-03-20T09:35:16.814Z,9.57
2019-03-20T09:38:04.521Z,9.20
2019-03-20T09:40:52.254Z,9.00
2019-03-20T09:43:39.764Z,8.87
2019-03-20T09:46:27.324Z,8.27
2019-03-20T09:49:14.700Z,7.73
2019-03-20T09:52:02.312Z,6.50
2019-03-20T09:54:50.134Z,5.17
2019-03-20T09:57:37.760Z,5.70
2019-03-20T10:00:28.881Z,6.30
2019-03-20T10:03:16.329Z,7.20
2019-03-20T10:06:03.898Z,4.17
2019-03-20T10:08:54.257Z,5.33
2019-03-20T10:11:40.520Z,4.97
2019-03-20T10:14:28.227Z,6.20
2019-03-20T10:17:17.351Z,5.87
2019-03-20T10:20:08.596Z,6.13
2019-03-20T10:22:56.144Z,6.13
2019-03-20T10:25:44.708Z,6.57
2019-03-20T10:28:32.674Z,5.83
2019-03-20T10:31:20.401Z,4.60
2019-03-20T10:34:08.128Z,4.53
2019-03-20T10:36:55.735Z,4.87
2019-03-20T10:39:43.373Z,5.40
2019-03-20T10:42:31.081Z,4.97
2019-03-20T10:45:19.664Z,5.57
2019-03-20T10:48:07.357Z,4.40
2019-03-20T10:50:55.056Z,4.17
2019-03-20T10:53:42.521Z,4.20
2019-03-20T10:56:30.017Z,3.80
2019-03-20T10:59:17.769Z,4.43
2019-03-20T11:02:05.244Z,4.70
2019-03-20T11:04:52.821Z,4.17
2019-03-20T11:07:40.323Z,4.07
2019-03-20T11:10:28.611Z,4.13
2019-03-20T11:13:16.354Z,3.27
2019-03-20T11:16:04.159Z,3.67
2019-03-20T11:18:51.592Z,3.87
2019-03-20T11:21:39.271Z,4.00
2019-03-20T11:24:26.737Z,3.10
2019-03-20T11:27:14.109Z,3.97
2019-03-20T11:30:01.514Z,4.33
2019-03-20T11:32:49.065Z,4.17
2019-03-20T11:35:36.620Z,3.73
2019-03-20T11:38:24.084Z,4.07
2019-03-20T11:41:11.732Z,3.80
2019-03-20T11:43:59.194Z,3.90
2019-03-20T11:46:46.669Z,4.37
2019-03-20T11:49:34.157Z,3.70
2019-03-20T11:52:21.917Z,5.27
2019-03-20T11:55:09.761Z,3.50
2019-03-20T11:57:57.116Z,3.10
2019-03-20T12:00:44.816Z,3.37
2019-03-20T12:03:32.261Z,3.53
2019-03-20T12:06:20.109Z,2.77
2019-03-20T12:09:08.924Z,3.50
2019-03-20T12:11:56.621Z,3.10
2019-03-20T12:14:44.357Z,3.10
2019-03-20T12:17:31.912Z,3.10
2019-03-20T12:20:20.393Z,3.23
2019-03-20T12:23:07.860Z,2.50
2019-03-20T12:25:55.488Z,2.70
2019-03-20T12:28:43.232Z,2.93
2019-03-20T12:31:30.729Z,3.13
2019-03-20T12:34:18.162Z,2.90
2019-03-20T12:37:05.939Z,3.23
2019-03-20T12:39:53.712Z,3.20
2019-03-20T12:42:41.562Z,3.03
2019-03-20T12:45:36.578Z,3.10
2019-03-20T12:48:24.288Z,2.90
2019-03-20T12:51:11.783Z,3.40
2019-03-20T12:53:59.652Z,3.10
2019-03-20T12:56:47.131Z,2.63
2019-03-20T12:59:34.760Z,3.03
2019-03-20T13:02:22.508Z,3.10
2019-03-20T13:05:12.238Z,3.10
2019-03-20T13:08:05.701Z,3.20
2019-03-20T13:10:49.637Z,3.10
2019-03-20T13:13:37.336Z,2.80
2019-03-20T13:16:25.167Z,3.07
2019-03-20T13:19:12.815Z,3.10
2019-03-20T13:22:00.544Z,3.13
2019-03-20T13:24:48.084Z,3.03
2019-03-20T13:27:35.860Z,3.00
2019-03-20T13:30:26.133Z,3.23
2019-03-20T13:33:13.730Z,3.70
2019-03-20T13:36:01.379Z,3.20
2019-03-20T13:38:49.162Z,3.40
2019-03-20T13:41:36.807Z,3.20
2019-03-20T13:44:24.252Z,3.23
2019-03-20T13:47:12.025Z,3.43
2019-03-20T13:49:59.798Z,3.27
2019-03-20T13:52:47.240Z,3.77
2019-03-20T13:55:35.072Z,3.63
2019-03-20T13:58:22.833Z,3.87
2019-03-20T14:01:10.696Z,3.60
2019-03-20T14:03:58.181Z,3.47
2019-03-20T14:06:45.868Z,3.63
2019-03-20T14:09:33.770Z,3.10
2019-03-20T14:12:21.350Z,2.93
2019-03-20T14:15:10.979Z,3.50
2019-03-20T14:17:58.386Z,3.23
2019-03-20T14:20:46.097Z,3.03
2019-03-20T14:23:33.697Z,3.53
2019-03-20T14:26:21.477Z,3.60
2019-03-20T14:29:09.177Z,4.00
2019-03-20T14:31:56.676Z,3.50
2019-03-20T14:34:44.136Z,3.90
2019-03-20T14:37:31.641Z,3.93
2019-03-20T14:40:36.847Z,3.87
2019-03-20T14:43:22.497Z,4.10
2019-03-20T14:46:09.553Z,3.53
2019-03-20T14:48:56.891Z,4.03
2019-03-20T14:51:44.596Z,3.93
2019-03-20T14:54:32.420Z,3.80
2019-03-20T14:57:20.132Z,4.43
2019-03-20T15:00:21.985Z,3.70
2019-03-20T15:03:09.540Z,4.10
2019-03-20T15:05:57.244Z,3.80
2019-03-20T15:08:44.620Z,3.80
2019-03-20T15:11:32.058Z,3.70
2019-03-20T15:14:19.541Z,3.53
2019-03-20T15:17:06.969Z,3.50
2019-03-20T15:19:54.671Z,3.57
2019-03-20T15:22:42.178Z,3.63
2019-03-20T15:25:29.651Z,3.77
2019-03-20T15:28:17.086Z,3.37
2019-03-20T15:31:04.628Z,3.60
2019-03-20T15:33:52.471Z,3.67
2019-03-20T15:36:39.928Z,2.77
2019-03-20T15:39:27.595Z,2.93
2019-03-20T15:42:15.316Z,3.13
2019-03-20T15:45:03.532Z,3.20
2019-03-20T15:47:51.292Z,2.90
2019-03-20T15:50:39.003Z,2.73
2019-03-20T15:53:26.953Z,2.70
2019-03-20T15:56:14.712Z,2.50
2019-03-20T15:59:02.209Z,2.90
2019-03-20T16:01:49.645Z,2.50
2019-03-20T16:04:37.193Z,3.13
2019-03-20T16:07:24.685Z,2.60
2019-03-20T16:10:22.285Z,2.63
2019-03-20T16:13:09.690Z,2.63
2019-03-20T16:15:57.416Z,3.40
2019-03-20T16:18:45.328Z,2.53
2019-03-20T16:21:32.913Z,2.97
2019-03-20T16:24:20.533Z,2.90
2019-03-20T16:27:08.282Z,2.70
2019-03-20T16:29:55.805Z,5.07
2019-03-20T16:32:43.627Z,2.40
2019-03-20T16:35:31.092Z,2.70
2019-03-20T16:38:18.795Z,3.00
2019-03-20T16:41:16.233Z,2.80
2019-03-20T16:43:55.944Z,2.43
2019-03-20T16:46:44.753Z,2.47
2019-03-20T16:49:32.356Z,2.70
2019-03-20T16:52:20.121Z,2.83
2019-03-20T16:55:10.310Z,2.53
2019-03-20T16:57:57.880Z,2.63
2019-03-20T17:00:45.513Z,2.70
2019-03-20T17:03:33.217Z,2.40
2019-03-20T17:06:20.723Z,2.20
2019-03-20T17:09:08.529Z,2.60
2019-03-20T17:11:56.033Z,2.27
2019-03-20T17:14:43.804Z,2.43
2019-03-20T17:17:31.362Z,2.60
2019-03-20T17:20:19.258Z,3.00
2019-03-20T17:23:07.885Z,2.23
2019-03-20T17:25:55.661Z,2.30
2019-03-20T17:28:43.230Z,2.70
2019-03-20T17:31:30.970Z,2.67
2019-03-20T17:34:18.638Z,2.80
2019-03-20T17:37:06.139Z,2.80
2019-03-20T17:39:53.894Z,4.17
2019-03-20T17:42:41.404Z,2.40
2019-03-20T17:45:29.620Z,2.97
2019-03-20T17:48:17.336Z,2.67
2019-03-20T17:51:05.032Z,2.50
2019-03-20T17:53:52.704Z,2.70
2019-03-20T17:56:40.189Z,2.87
2019-03-20T17:59:28.088Z,2.77
2019-03-20T18:02:23.611Z,2.50
2019-03-20T18:05:07.641Z,3.10
2019-03-20T18:11:47.482Z,3.40
2019-03-20T18:14:32.287Z,2.80
2019-03-20T18:17:19.799Z,3.37
2019-03-20T18:20:15.726Z,2.80
2019-03-20T18:23:03.205Z,3.57
2019-03-20T18:25:50.889Z,3.40
2019-03-20T18:28:38.478Z,3.20
2019-03-20T18:31:25.901Z,3.70
2019-03-20T18:34:14.128Z,3.50
2019-03-20T18:37:01.997Z,3.17
2019-03-20T18:39:49.810Z,3.53
2019-03-20T18:42:37.473Z,4.20
2019-03-20T18:45:26.161Z,4.07
2019-03-20T18:48:13.830Z,4.17
2019-03-20T18:51:01.678Z,4.30
2019-03-20T18:53:49.467Z,4.50
2019-03-20T18:56:37.177Z,5.13
2019-03-20T18:59:24.675Z,7.30
2019-03-20T19:02:12.208Z,6.57
2019-03-20T19:04:59.906Z,8.00
2019-03-20T19:07:47.343Z,7.23
2019-03-20T19:10:34.968Z,6.63
2019-03-20T19:13:24.442Z,7.40
2019-03-20T19:16:12.090Z,7.20
2019-03-20T19:18:59.785Z,7.60
2019-03-20T19:21:47.358Z,7.30
2019-03-20T19:24:34.854Z,7.47
2019-03-20T19:27:22.600Z,7.80
2019-03-20T19:30:15.893Z,8.00
2019-03-20T19:33:03.987Z,7.97
2019-03-20T19:35:51.512Z,8.33
2019-03-20T19:38:39.068Z,8.17
2019-03-20T19:41:26.599Z,7.80
2019-03-20T19:44:14.003Z,7.57
2019-03-20T19:47:01.488Z,8.00
2019-03-20T19:49:48.888Z,8.20
2019-03-20T19:52:36.594Z,6.97
2019-03-20T19:55:24.351Z,8.27
2019-03-20T19:58:12.120Z,7.67
2019-03-20T20:00:59.605Z,7.07
2019-03-20T20:03:47.212Z,7.50
2019-03-20T20:06:34.885Z,7.60
2019-03-20T20:09:22.661Z,7.73
2019-03-20T20:12:10.451Z,7.53
2019-03-20T20:14:57.940Z,7.17
2019-03-20T20:17:47.002Z,7.50
2019-03-20T20:20:39.775Z,8.47
2019-03-20T20:23:27.654Z,7.23
2019-03-20T20:26:15.187Z,7.73
2019-03-20T20:29:02.811Z,8.10
2019-03-20T20:31:50.261Z,8.10
2019-03-20T20:34:38.021Z,8.00
2019-03-20T20:37:25.790Z,8.13
2019-03-20T20:40:16.498Z,8.20
2019-03-20T20:43:04.629Z,8.60
2019-03-20T20:45:52.366Z,8.67
2019-03-20T20:48:39.716Z,8.90
2019-03-20T20:51:27.285Z,8.10
2019-03-20T20:54:14.974Z,11.27
2019-03-20T20:57:02.682Z,8.50
2019-03-20T20:59:50.251Z,8.30
2019-03-20T21:02:37.593Z,8.33
2019-03-20T21:05:25.356Z,8.07
2019-03-20T21:08:12.806Z,9.37
2019-03-20T21:11:00.517Z,10.10
2019-03-20T21:13:48.145Z,9.67
2019-03-20T21:16:36.050Z,10.23
2019-03-20T21:19:31.505Z,10.20
2019-03-20T21:22:33.794Z,10.17
2019-03-20T21:25:21.162Z,10.33
2019-03-20T21:28:44.822Z,10.70
2019-03-20T21:31:35.816Z,10.33
2019-03-20T21:34:38.662Z,10.37
2019-03-20T21:37:45.834Z,10.70
2019-03-20T21:40:39.504Z,10.63
2019-03-20T21:43:47.765Z,9.73
2019-03-20T21:46:53.426Z,9.80
2019-03-20T21:49:41.350Z,9.50
2019-03-20T21:52:28.761Z,9.03
2019-03-20T21:55:28.202Z,8.70
2019-03-20T21:58:21.817Z,8.37
2019-03-20T22:01:18.465Z,9.50
2019-03-20T22:04:06.342Z,9.30
2019-03-20T22:07:12.069Z,10.43
2019-03-20T22:10:17.497Z,10.80
2019-03-20T22:13:23.265Z,10.00
2019-03-20T22:16:13.821Z,10.93
2019-03-20T22:19:25.269Z,9.27
2019-03-20T22:22:24.706Z,10.00
2019-03-20T22:25:27.294Z,9.80
2019-03-20T22:28:20.612Z,9.37
2019-03-20T22:31:08.381Z,8.33
2019-03-20T22:34:24.414Z,9.93
2019-03-20T22:37:13.270Z,9.00
2019-03-20T22:40:09.749Z,8.10
2019-03-20T22:43:05.966Z,9.20
2019-03-20T22:46:21.969Z,7.83
2019-03-20T22:49:17.830Z,8.50
2019-03-20T22:52:36.210Z,8.47
2019-03-20T22:55:44.681Z,8.37
2019-03-20T22:58:46.441Z,8.60
2019-03-20T23:01:43.210Z,8.20
2019-03-20T23:04:36.989Z,8.77
2019-03-20T23:07:24.443Z,9.13
2019-03-20T23:10:15.021Z,8.87
2019-03-20T23:13:02.385Z,8.57
2019-03-20T23:15:50.856Z,7.90
2019-03-20T23:18:38.492Z,8.30
2019-03-20T23:21:26.178Z,8.90
2019-03-20T23:24:13.819Z,7.83
2019-03-20T23:27:04.504Z,8.27
2019-03-20T23:29:51.916Z,8.70
2019-03-20T23:32:39.625Z,8.23
2019-03-20T23:35:27.304Z,9.33
2019-03-20T23:38:14.857Z,9.17
2019-03-20T23:41:02.357Z,8.73
2019-03-20T23:43:53.315Z,9.07
2019-03-20T23:46:39.486Z,9.17
2019-03-20T23:49:27.016Z,9.00
2019-03-20T23:52:14.442Z,8.90
2019-03-20T23:55:01.901Z,9.77
2019-03-20T23:57:49.550Z,8.50
